createdAt,value
2018-11-11T00:00:11.060Z,0.73
2018-11-11T00:02:39.602Z,0.83
2018-11-11T00:05:09.597Z,0.60
2018-11-11T00:07:38.440Z,0.77
2018-11-11T00:10:07.750Z,1.27
2018-11-11T00:12:36.908Z,0.97
2018-11-11T00:15:06.923Z,0.70
2018-11-11T00:17:35.658Z,1.37
2018-11-11T00:20:04.828Z,1.07
2018-11-11T00:22:33.498Z,0.93
2018-11-11T00:25:02.163Z,1.13
2018-11-11T00:27:30.835Z,0.47
2018-11-11T00:29:59.482Z,0.60
2018-11-11T00:32:29.003Z,0.37
2018-11-11T00:34:57.934Z,0.67
2018-11-11T00:37:26.772Z,0.90
2018-11-11T00:39:55.543Z,0.33
2018-11-11T00:42:24.269Z,0.63
2018-11-11T00:44:53.080Z,0.63
2018-11-11T00:47:21.783Z,0.67
2018-11-11T00:49:50.693Z,0.57
2018-11-11T00:52:19.478Z,1.00
2018-11-11T00:54:48.135Z,1.50
2018-11-11T00:57:16.914Z,1.33
2018-11-11T00:59:45.900Z,0.67
2018-11-11T01:02:14.796Z,1.00
2018-11-11T01:04:43.587Z,1.13
2018-11-11T01:07:12.404Z,0.93
2018-11-11T01:09:41.241Z,1.00
2018-11-11T01:12:10.095Z,0.40
2018-11-11T01:14:38.951Z,0.97
2018-11-11T01:17:08.426Z,1.33
2018-11-11T01:19:37.314Z,0.80
2018-11-11T01:22:06.188Z,1.37
2018-11-11T01:24:34.977Z,0.50
2018-11-11T01:27:03.652Z,0.93
2018-11-11T01:29:32.330Z,0.97
2018-11-11T01:32:01.006Z,0.97
2018-11-11T01:34:29.638Z,1.60
2018-11-11T01:36:58.276Z,1.00
2018-11-11T01:39:38.396Z,0.43
2018-11-11T01:42:06.912Z,1.10
2018-11-11T01:44:35.388Z,0.80
2018-11-11T01:47:03.874Z,0.20
2018-11-11T01:49:32.348Z,0.50
2018-11-11T01:52:00.817Z,0.87
2018-11-11T01:54:29.322Z,1.03
2018-11-11T01:56:57.780Z,0.57
2018-11-11T01:59:26.274Z,0.90
2018-11-11T02:01:54.740Z,1.17
2018-11-11T02:04:23.632Z,0.77
2018-11-11T02:06:52.598Z,0.50
2018-11-11T02:09:21.475Z,0.60
2018-11-11T02:11:50.329Z,1.07
2018-11-11T02:14:19.149Z,0.60
2018-11-11T02:16:50.790Z,1.70
2018-11-11T02:19:19.682Z,1.07
2018-11-11T02:21:48.575Z,0.80
2018-11-11T02:24:17.369Z,0.93
2018-11-11T02:26:46.059Z,0.90
2018-11-11T02:29:14.782Z,0.87
2018-11-11T02:31:43.397Z,0.70
2018-11-11T02:34:12.038Z,0.63
2018-11-11T02:36:40.721Z,0.33
2018-11-11T02:39:09.928Z,0.97
2018-11-11T02:41:38.653Z,0.60
2018-11-11T02:44:07.439Z,0.70
2018-11-11T02:46:36.051Z,0.40
2018-11-11T02:49:04.979Z,0.50
2018-11-11T02:51:33.652Z,0.43
2018-11-11T02:54:02.275Z,0.80
2018-11-11T02:56:30.893Z,0.83
2018-11-11T02:58:59.562Z,0.63
2018-11-11T03:01:28.038Z,0.67
2018-11-11T03:03:56.972Z,1.20
2018-11-11T03:06:25.872Z,0.80
2018-11-11T03:08:54.814Z,0.53
2018-11-11T03:11:23.638Z,0.70
2018-11-11T03:13:52.447Z,0.50
2018-11-11T03:16:21.156Z,0.93
2018-11-11T03:18:49.777Z,1.20
2018-11-11T03:21:18.404Z,0.57
2018-11-11T03:23:47.050Z,0.57
2018-11-11T03:26:15.813Z,0.60
2018-11-11T03:28:44.458Z,1.27
2018-11-11T03:31:13.227Z,1.17
2018-11-11T03:33:41.857Z,1.17
2018-11-11T03:36:10.508Z,0.80
2018-11-11T03:38:39.176Z,0.90
2018-11-11T03:41:07.802Z,1.23
2018-11-11T03:43:36.471Z,0.40
2018-11-11T03:46:05.232Z,0.83
2018-11-11T03:48:33.919Z,0.83
2018-11-11T03:51:02.536Z,0.77
2018-11-11T03:53:31.207Z,0.50
2018-11-11T03:55:59.841Z,1.10
2018-11-11T03:58:28.542Z,0.73
2018-11-11T04:00:57.180Z,0.93
2018-11-11T04:03:25.770Z,0.13
2018-11-11T04:05:54.260Z,1.50
2018-11-11T04:08:22.747Z,1.13
2018-11-11T04:10:51.301Z,1.00
2018-11-11T04:13:19.785Z,1.13
2018-11-11T04:15:48.643Z,1.07
2018-11-11T04:18:17.109Z,0.50
2018-11-11T04:20:45.575Z,0.83
2018-11-11T04:23:14.060Z,1.07
2018-11-11T04:25:42.569Z,0.67
2018-11-11T04:28:11.047Z,1.20
2018-11-11T04:30:39.523Z,1.00
2018-11-11T04:33:08.003Z,0.33
2018-11-11T04:35:36.477Z,0.73
2018-11-11T04:38:04.998Z,0.43
2018-11-11T04:40:33.492Z,0.47
2018-11-11T04:43:01.997Z,0.73
2018-11-11T04:45:30.476Z,0.90
2018-11-11T04:47:58.941Z,0.90
2018-11-11T04:50:27.408Z,1.03
2018-11-11T04:52:55.905Z,0.53
2018-11-11T04:55:24.393Z,1.00
2018-11-11T04:57:52.876Z,0.83
2018-11-11T05:00:21.352Z,0.50
2018-11-11T05:02:49.850Z,0.97
2018-11-11T05:05:18.806Z,1.27
2018-11-11T05:07:47.684Z,0.90
2018-11-11T05:10:16.560Z,1.17
2018-11-11T05:12:45.347Z,0.70
2018-11-11T05:15:14.589Z,0.83
2018-11-11T05:17:43.630Z,0.80
2018-11-11T05:20:13.169Z,0.67
2018-11-11T05:22:42.421Z,1.30
2018-11-11T05:25:12.473Z,0.50
2018-11-11T05:27:41.476Z,0.97
2018-11-11T05:30:11.000Z,1.30
2018-11-11T05:32:39.947Z,0.60
2018-11-11T05:35:09.356Z,0.77
2018-11-11T05:37:38.186Z,1.40
2018-11-11T05:40:07.976Z,0.70
2018-11-11T05:42:36.575Z,0.50
2018-11-11T05:45:06.133Z,1.03
2018-11-11T05:47:34.734Z,0.70
2018-11-11T05:50:03.403Z,0.50
2018-11-11T05:52:32.076Z,0.80
2018-11-11T05:55:00.822Z,1.03
2018-11-11T05:57:29.453Z,1.07
2018-11-11T05:59:58.107Z,1.03
2018-11-11T06:02:26.762Z,0.63
2018-11-11T06:04:55.317Z,0.37
2018-11-11T06:07:23.968Z,0.60
2018-11-11T06:09:52.432Z,0.40
2018-11-11T06:12:20.904Z,0.57
2018-11-11T06:14:49.378Z,0.50
2018-11-11T06:17:17.820Z,0.50
2018-11-11T06:19:46.310Z,0.93
2018-11-11T06:22:14.794Z,0.40
2018-11-11T06:24:43.280Z,0.40
2018-11-11T06:27:11.768Z,0.70
2018-11-11T06:29:40.242Z,0.77
2018-11-11T06:32:08.834Z,0.37
2018-11-11T06:34:37.315Z,0.37
2018-11-11T06:37:05.884Z,0.50
2018-11-11T06:39:34.363Z,0.60
2018-11-11T06:42:03.149Z,0.33
2018-11-11T06:44:31.631Z,0.40
2018-11-11T06:47:00.146Z,0.63
2018-11-11T06:49:28.614Z,0.53
2018-11-11T06:51:57.095Z,0.47
2018-11-11T06:54:25.535Z,1.10
2018-11-11T06:56:54.019Z,0.97
2018-11-11T06:59:22.495Z,0.60
2018-11-11T07:01:50.973Z,0.73
2018-11-11T07:04:19.968Z,0.60
2018-11-11T07:06:48.842Z,0.50
2018-11-11T07:09:17.629Z,0.30
2018-11-11T07:11:46.540Z,0.70
2018-11-11T07:14:15.369Z,0.57
2018-11-11T07:16:44.147Z,0.30
2018-11-11T07:19:12.795Z,0.70
2018-11-11T07:21:41.421Z,0.63
2018-11-11T07:24:10.079Z,0.90
2018-11-11T07:26:38.771Z,0.57
2018-11-11T07:29:07.484Z,0.80
2018-11-11T07:31:36.139Z,0.70
2018-11-11T07:34:04.880Z,0.40
2018-11-11T07:36:33.364Z,0.40
2018-11-11T07:39:02.033Z,0.67
2018-11-11T07:41:30.678Z,0.23
2018-11-11T07:43:59.333Z,0.60
2018-11-11T07:46:27.944Z,0.47
2018-11-11T07:48:56.622Z,0.40
2018-11-11T07:51:25.094Z,0.40
2018-11-11T07:53:53.686Z,0.70
2018-11-11T07:56:22.289Z,0.43
2018-11-11T07:58:51.040Z,0.40
2018-11-11T08:01:19.750Z,0.63
2018-11-11T08:03:48.402Z,0.73
2018-11-11T08:06:17.058Z,0.60
2018-11-11T08:08:45.746Z,0.60
2018-11-11T08:11:25.452Z,0.50
2018-11-11T08:13:53.944Z,0.77
2018-11-11T08:16:22.410Z,0.40
2018-11-11T08:18:50.886Z,0.40
2018-11-11T08:21:19.382Z,0.67
2018-11-11T08:23:47.862Z,0.60
2018-11-11T08:26:16.333Z,0.43
2018-11-11T08:28:44.806Z,0.50
2018-11-11T08:31:13.296Z,0.47
2018-11-11T08:33:41.784Z,0.87
2018-11-11T08:36:10.289Z,0.50
2018-11-11T08:38:38.774Z,0.73
2018-11-11T08:41:07.243Z,0.43
2018-11-11T08:43:35.734Z,0.80
2018-11-11T08:46:04.234Z,0.70
2018-11-11T08:48:32.719Z,0.30
2018-11-11T08:51:01.219Z,0.97
2018-11-11T08:53:29.713Z,0.40
2018-11-11T08:55:58.229Z,0.73
2018-11-11T08:58:26.685Z,0.40
2018-11-11T09:00:55.153Z,0.37
2018-11-11T09:03:23.663Z,0.63
2018-11-11T09:05:52.540Z,0.53
2018-11-11T09:08:21.312Z,0.20
2018-11-11T09:10:50.136Z,0.77
2018-11-11T09:13:19.093Z,1.50
2018-11-11T09:15:47.714Z,0.50
2018-11-11T09:18:16.385Z,0.77
2018-11-11T09:20:45.100Z,0.50
2018-11-11T09:23:13.835Z,0.20
2018-11-11T09:25:42.538Z,0.50
2018-11-11T09:28:11.226Z,0.70
2018-11-11T09:30:39.868Z,0.20
2018-11-11T09:33:08.522Z,0.60
2018-11-11T09:35:38.014Z,0.53
2018-11-11T09:38:06.838Z,0.70
2018-11-11T09:40:35.580Z,0.43
2018-11-11T09:43:04.188Z,0.67
2018-11-11T09:45:32.906Z,0.60
2018-11-11T09:48:01.658Z,1.10
2018-11-11T09:50:30.248Z,0.50
2018-11-11T09:52:59.030Z,0.60
2018-11-11T09:55:27.713Z,1.07
2018-11-11T09:57:56.280Z,0.53
2018-11-11T10:00:24.919Z,1.27
2018-11-11T10:02:56.819Z,1.10
2018-11-11T10:05:34.411Z,0.50
2018-11-11T10:08:11.017Z,1.33
2018-11-11T10:10:47.348Z,0.70
2018-11-11T10:14:23.624Z,0.50
2018-11-11T10:17:13.077Z,0.33
2018-11-11T10:19:45.274Z,0.90
2018-11-11T10:22:34.925Z,0.87
2018-11-11T10:25:10.963Z,0.70
2018-11-11T10:27:43.977Z,0.53
2018-11-11T10:31:16.569Z,0.80
2018-11-11T10:33:50.506Z,0.50
2018-11-11T10:36:25.643Z,0.53
2018-11-11T10:39:05.875Z,0.47
2018-11-11T10:41:49.329Z,0.47
2018-11-11T10:44:22.641Z,0.60
2018-11-11T10:46:55.915Z,0.67
2018-11-11T10:49:27.564Z,0.40
2018-11-11T10:51:56.059Z,0.20
2018-11-11T10:54:24.966Z,0.47
2018-11-11T10:56:53.408Z,0.70
2018-11-11T10:59:21.888Z,0.60
2018-11-11T11:01:55.801Z,0.57
2018-11-11T11:04:24.700Z,0.70
2018-11-11T11:06:58.756Z,0.30
2018-11-11T11:09:27.613Z,1.40
2018-11-11T11:11:56.489Z,0.90
2018-11-11T11:14:25.408Z,0.67
2018-11-11T11:16:54.084Z,0.23
2018-11-11T11:19:23.164Z,0.50
2018-11-11T11:21:51.782Z,0.63
2018-11-11T11:24:20.653Z,1.03
2018-11-11T11:26:49.430Z,1.03
2018-11-11T11:29:18.174Z,0.43
2018-11-11T11:31:47.185Z,0.70
2018-11-11T11:34:15.925Z,1.07
2018-11-11T11:36:44.802Z,0.60
2018-11-11T11:39:13.635Z,0.60
2018-11-11T11:41:42.561Z,0.93
2018-11-11T11:44:11.523Z,0.60
2018-11-11T11:46:40.379Z,0.43
2018-11-11T11:49:09.213Z,0.40
2018-11-11T11:51:37.948Z,0.60
2018-11-11T11:54:06.882Z,0.33
2018-11-11T11:56:35.726Z,1.03
2018-11-11T11:59:04.689Z,0.70
2018-11-11T12:01:33.607Z,0.23
2018-11-11T12:04:02.468Z,0.50
2018-11-11T12:06:31.292Z,0.57
2018-11-11T12:09:00.283Z,0.57
2018-11-11T12:11:29.215Z,0.40
2018-11-11T12:13:58.040Z,0.50
2018-11-11T12:16:27.004Z,0.70
2018-11-11T12:18:55.895Z,0.33
2018-11-11T12:21:24.614Z,0.60
2018-11-11T12:23:53.440Z,0.50
2018-11-11T12:26:22.366Z,0.40
2018-11-11T12:28:51.234Z,0.40
2018-11-11T12:31:20.156Z,0.40
2018-11-11T12:33:49.118Z,0.40
2018-11-11T12:36:18.029Z,0.30
2018-11-11T12:38:46.909Z,0.57
2018-11-11T12:41:15.770Z,0.47
2018-11-11T12:43:44.572Z,0.47
2018-11-11T12:46:13.237Z,0.30
2018-11-11T12:48:41.840Z,0.20
2018-11-11T12:51:10.619Z,0.07
2018-11-11T12:53:39.334Z,0.20
2018-11-11T12:56:08.493Z,0.00
2018-11-11T12:58:36.961Z,0.30
2018-11-11T13:01:06.093Z,0.30
2018-11-11T13:03:37.463Z,0.20
2018-11-11T13:06:06.514Z,0.50
2018-11-11T13:08:35.456Z,0.60
2018-11-11T13:11:04.229Z,0.40
2018-11-11T13:13:32.937Z,0.20
2018-11-11T13:16:01.600Z,0.50
2018-11-11T13:18:30.639Z,0.20
2018-11-11T13:20:59.368Z,0.80
2018-11-11T13:23:28.317Z,0.43
2018-11-11T13:25:57.182Z,0.53
2018-11-11T13:28:26.079Z,0.30
2018-11-11T13:30:55.567Z,0.70
2018-11-11T13:33:24.307Z,0.50
2018-11-11T13:35:52.978Z,0.57
2018-11-11T13:38:21.714Z,0.30
2018-11-11T13:40:50.358Z,0.50
2018-11-11T13:43:19.070Z,0.63
2018-11-11T13:45:47.766Z,0.67
2018-11-11T13:48:16.461Z,0.10
2018-11-11T13:50:45.064Z,0.30
2018-11-11T13:53:13.841Z,0.10
2018-11-11T13:55:42.572Z,0.00
2018-11-11T13:58:11.188Z,0.70
2018-11-11T14:00:39.898Z,0.00
2018-11-11T14:03:08.548Z,0.00
2018-11-11T14:05:37.155Z,0.03
2018-11-11T14:08:05.845Z,0.50
2018-11-11T14:10:34.539Z,0.67
2018-11-11T14:13:03.124Z,0.20
2018-11-11T14:15:31.812Z,0.37
2018-11-11T14:18:00.304Z,0.00
2018-11-11T14:20:28.832Z,0.40
2018-11-11T14:22:57.464Z,0.37
2018-11-11T14:25:28.380Z,0.00
2018-11-11T14:27:56.850Z,0.00
2018-11-11T14:30:26.396Z,0.33
2018-11-11T14:32:55.793Z,0.13
2018-11-11T14:35:24.316Z,0.30
2018-11-11T14:37:53.112Z,0.00
2018-11-11T14:40:23.932Z,0.20
2018-11-11T14:42:52.412Z,0.43
2018-11-11T14:45:21.395Z,0.40
2018-11-11T14:47:51.405Z,0.40
2018-11-11T14:50:20.329Z,0.30
2018-11-11T14:52:49.064Z,0.30
2018-11-11T14:55:19.120Z,0.17
2018-11-11T14:57:47.602Z,0.50
2018-11-11T15:00:20.616Z,0.10
2018-11-11T15:03:01.819Z,0.23
2018-11-11T15:05:30.749Z,0.10
2018-11-11T15:07:59.834Z,0.40
2018-11-11T15:10:28.603Z,0.00
2018-11-11T15:12:57.515Z,0.20
2018-11-11T15:15:26.507Z,0.10
2018-11-11T15:17:56.263Z,0.10
2018-11-11T15:20:25.137Z,0.20
2018-11-11T15:22:53.655Z,0.10
2018-11-11T15:25:23.679Z,0.23
2018-11-11T15:27:52.190Z,0.00
2018-11-11T15:30:22.272Z,0.13
2018-11-11T15:32:51.471Z,0.00
2018-11-11T15:35:20.178Z,0.07
2018-11-11T15:37:48.946Z,0.00
2018-11-11T15:40:22.198Z,0.30
2018-11-11T15:42:50.882Z,0.10
2018-11-11T15:45:21.058Z,0.00
2018-11-11T15:47:49.736Z,0.10
2018-11-11T15:50:30.797Z,0.00
2018-11-11T15:53:00.843Z,0.00
2018-11-11T15:55:30.833Z,0.00
2018-11-11T15:57:59.542Z,0.20
2018-11-11T16:00:29.478Z,0.00
2018-11-11T16:02:58.167Z,0.00
2018-11-11T16:05:26.962Z,0.00
2018-11-11T16:07:56.242Z,0.00
2018-11-11T16:10:26.048Z,0.00
2018-11-11T16:12:54.590Z,0.00
2018-11-11T16:15:28.073Z,0.00
2018-11-11T16:17:58.648Z,0.40
2018-11-11T16:20:28.509Z,0.00
2018-11-11T16:22:58.455Z,0.00
2018-11-11T16:25:27.505Z,0.00
2018-11-11T16:27:56.295Z,0.00
2018-11-11T16:30:29.722Z,0.00
2018-11-11T16:32:59.230Z,0.00
2018-11-11T16:35:28.989Z,0.07
2018-11-11T16:37:58.423Z,0.00
2018-11-11T16:40:28.297Z,0.10
2018-11-11T16:42:56.995Z,0.00
2018-11-11T16:45:29.047Z,0.03
2018-11-11T16:47:57.604Z,0.00
2018-11-11T16:50:31.044Z,0.10
2018-11-11T16:53:01.139Z,0.00
2018-11-11T16:55:30.751Z,0.00
2018-11-11T16:57:59.156Z,0.00
2018-11-11T17:00:28.985Z,0.00
2018-11-11T17:02:58.482Z,0.00
2018-11-11T17:05:28.814Z,0.00
2018-11-11T17:07:57.716Z,0.00
2018-11-11T17:10:28.709Z,0.00
2018-11-11T17:12:58.932Z,0.00
2018-11-11T17:15:29.137Z,0.00
2018-11-11T17:17:58.022Z,0.00
2018-11-11T17:20:27.393Z,0.00
2018-11-11T17:23:01.775Z,0.00
2018-11-11T17:25:30.558Z,0.00
2018-11-11T17:27:59.526Z,0.00
2018-11-11T17:30:29.817Z,0.00
2018-11-11T17:32:59.470Z,0.00
2018-11-11T17:35:28.352Z,0.00
2018-11-11T17:37:57.218Z,0.10
2018-11-11T17:40:30.196Z,0.00
2018-11-11T17:42:59.785Z,0.00
2018-11-11T17:45:28.766Z,0.00
2018-11-11T17:47:58.061Z,0.00
2018-11-11T17:50:28.428Z,0.33
2018-11-11T17:52:57.746Z,0.00
2018-11-11T17:55:27.431Z,0.00
2018-11-11T17:57:56.329Z,0.00
2018-11-11T18:00:26.086Z,0.00
2018-11-11T18:02:55.085Z,0.00
2018-11-11T18:05:24.819Z,0.00
2018-11-11T18:07:53.425Z,0.00
2018-11-11T18:10:22.975Z,0.00
2018-11-11T18:12:51.426Z,0.10
2018-11-11T18:15:22.555Z,0.00
2018-11-11T18:17:51.049Z,0.00
2018-11-11T18:20:21.968Z,0.00
2018-11-11T18:22:51.466Z,0.00
2018-11-11T18:25:19.948Z,0.00
2018-11-11T18:27:48.477Z,0.00
2018-11-11T18:30:19.842Z,0.00
2018-11-11T18:32:48.597Z,0.00
2018-11-11T18:35:17.766Z,0.00
2018-11-11T18:37:46.275Z,0.00
2018-11-11T18:40:16.204Z,0.00
2018-11-11T18:42:44.968Z,0.00
2018-11-11T18:45:18.178Z,0.00
2018-11-11T18:47:47.371Z,0.00
2018-11-11T18:50:18.328Z,0.00
2018-11-11T18:52:46.927Z,0.00
2018-11-11T18:55:15.444Z,0.53
2018-11-11T18:57:44.527Z,0.20
2018-11-11T19:00:16.721Z,0.40
2018-11-11T19:02:46.190Z,0.93
2018-11-11T19:05:16.053Z,0.53
2018-11-11T19:07:45.072Z,0.43
2018-11-11T19:10:16.787Z,0.43
2018-11-11T19:12:46.664Z,0.73
2018-11-11T19:15:16.546Z,0.43
2018-11-11T19:17:46.164Z,0.57
2018-11-11T19:20:16.348Z,0.57
2018-11-11T19:22:45.252Z,0.53
2018-11-11T19:25:16.525Z,0.57
2018-11-11T19:27:46.704Z,0.80
2018-11-11T19:30:16.614Z,0.20
2018-11-11T19:32:46.291Z,0.40
2018-11-11T19:35:15.889Z,0.30
2018-11-11T19:37:45.880Z,0.20
2018-11-11T19:40:16.335Z,0.60
2018-11-11T19:42:45.670Z,0.87
2018-11-11T19:45:15.966Z,0.33
2018-11-11T19:47:44.970Z,0.87
2018-11-11T19:50:31.977Z,0.67
2018-11-11T19:53:01.084Z,0.30
2018-11-11T19:55:30.067Z,0.77
2018-11-11T19:57:58.702Z,0.30
2018-11-11T20:00:28.624Z,0.83
2018-11-11T20:02:57.991Z,0.70
2018-11-11T20:05:26.898Z,0.00
2018-11-11T20:07:57.044Z,0.00
2018-11-11T20:10:26.815Z,0.10
2018-11-11T20:12:55.830Z,0.07
2018-11-11T20:15:26.256Z,0.40
2018-11-11T20:17:55.367Z,0.30
2018-11-11T20:20:25.878Z,0.37
2018-11-11T20:22:54.742Z,0.57
2018-11-11T20:25:23.610Z,0.40
2018-11-11T20:27:52.474Z,0.00
2018-11-11T20:30:23.631Z,0.03
2018-11-11T20:32:52.845Z,0.00
2018-11-11T20:35:23.066Z,0.00
2018-11-11T20:37:52.005Z,0.00
2018-11-11T20:40:22.002Z,0.23
2018-11-11T20:42:51.392Z,0.03
2018-11-11T20:45:21.675Z,0.00
2018-11-11T20:47:51.113Z,0.30
2018-11-11T20:50:21.197Z,0.33
2018-11-11T20:52:51.479Z,0.40
2018-11-11T20:55:20.493Z,0.17
2018-11-11T20:57:48.981Z,0.00
2018-11-11T21:00:18.767Z,0.00
2018-11-11T21:02:47.249Z,0.40
2018-11-11T21:05:18.341Z,0.10
2018-11-11T21:07:47.262Z,0.00
2018-11-11T21:10:17.472Z,0.10
2018-11-11T21:12:46.404Z,0.00
2018-11-11T21:15:16.575Z,0.10
2018-11-11T21:17:45.655Z,0.00
2018-11-11T21:20:15.785Z,0.00
2018-11-11T21:22:44.640Z,0.00
2018-11-11T21:25:13.673Z,0.00
2018-11-11T21:27:43.397Z,0.00
2018-11-11T21:30:15.314Z,0.00
2018-11-11T21:32:44.131Z,0.00
2018-11-11T21:35:13.202Z,0.00
2018-11-11T21:37:42.550Z,0.00
2018-11-11T21:40:28.787Z,0.50
2018-11-11T21:42:57.687Z,0.70
2018-11-11T21:45:27.128Z,0.40
2018-11-11T21:47:55.615Z,0.43
2018-11-11T21:50:25.329Z,0.40
2018-11-11T21:53:56.936Z,0.20
2018-11-11T21:56:25.439Z,0.00
2018-11-11T21:58:53.954Z,0.00
2018-11-11T22:01:22.452Z,0.00
2018-11-11T22:03:50.928Z,0.00
2018-11-11T22:06:19.407Z,0.00
2018-11-11T22:08:47.890Z,0.00
2018-11-11T22:11:16.394Z,0.00
2018-11-11T22:13:44.904Z,0.20
2018-11-11T22:16:13.630Z,0.00
2018-11-11T22:18:42.105Z,0.00
2018-11-11T22:21:10.569Z,0.10
2018-11-11T22:23:39.052Z,0.00
2018-11-11T22:26:07.541Z,0.00
2018-11-11T22:28:36.027Z,0.10
2018-11-11T22:31:04.503Z,0.07
2018-11-11T22:33:33.007Z,0.00
2018-11-11T22:36:01.529Z,0.00
2018-11-11T22:38:30.041Z,0.00
2018-11-11T22:40:58.514Z,0.00
2018-11-11T22:43:26.994Z,0.00
2018-11-11T22:45:55.491Z,0.00
2018-11-11T22:48:23.959Z,0.10
2018-11-11T22:50:52.451Z,0.00
2018-11-11T22:53:20.942Z,0.00
2018-11-11T22:55:49.441Z,0.00
2018-11-11T22:58:17.935Z,0.00
2018-11-11T23:00:51.693Z,0.17
2018-11-11T23:03:20.181Z,0.00
2018-11-11T23:05:48.645Z,0.00
2018-11-11T23:08:17.165Z,0.00
2018-11-11T23:10:45.633Z,0.03
2018-11-11T23:13:14.107Z,0.00
2018-11-11T23:15:42.580Z,0.00
2018-11-11T23:18:11.062Z,0.00
2018-11-11T23:20:39.542Z,0.00
2018-11-11T23:23:08.048Z,0.00
2018-11-11T23:25:36.520Z,0.00
2018-11-11T23:28:05.196Z,0.00
2018-11-11T23:30:33.672Z,0.00
2018-11-11T23:33:02.140Z,0.00
2018-11-11T23:35:30.604Z,0.00
2018-11-11T23:37:59.078Z,0.00
2018-11-11T23:40:27.596Z,0.00
2018-11-11T23:42:56.060Z,0.00
2018-11-11T23:45:24.562Z,0.00
2018-11-11T23:47:53.049Z,0.17
2018-11-11T23:50:21.558Z,0.00
2018-11-11T23:52:50.052Z,0.00
2018-11-11T23:55:19.416Z,0.00
2018-11-11T23:57:48.402Z,0.00
